sensor_id;sensor_type;location;lat;lon;timestamp;P1;durP1;ratioP1;P2;durP2;ratioP2
48835;SDS011;62581;47.342;7.908;2022-09-09T00:00:33;5.30;;;1.75;;
48835;SDS011;62581;47.342;7.908;2022-09-09T00:03:06;6.13;;;1.90;;
48835;SDS011;62581;47.342;7.908;2022-09-09T00:05:38;5.85;;;1.50;;
48835;SDS011;62581;47.342;7.908;2022-09-09T00:08:12;4.82;;;1.95;;
48835;SDS011;62581;47.342;7.908;2022-09-09T00:10:44;6.82;;;1.77;;
48835;SDS011;62581;47.342;7.908;2022-09-09T00:13:18;8.60;;;2.20;;
48835;SDS011;62581;47.342;7.908;2022-09-09T00:15:53;5.22;;;1.88;;
48835;SDS011;62581;47.342;7.908;2022-09-09T00:18:25;8.05;;;2.30;;
48835;SDS011;62581;47.342;7.908;2022-09-09T00:21:01;4.55;;;1.80;;
48835;SDS011;62581;47.342;7.908;2022-09-09T00:23:33;6.30;;;1.88;;
48835;SDS011;62581;47.342;7.908;2022-09-09T00:26:05;14.30;;;1.90;;
48835;SDS011;62581;47.342;7.908;2022-09-09T00:28:44;6.22;;;1.70;;
48835;SDS011;62581;47.342;7.908;2022-09-09T00:31:18;3.95;;;1.83;;
48835;SDS011;62581;47.342;7.908;2022-09-09T00:33:51;7.60;;;1.90;;
48835;SDS011;62581;47.342;7.908;2022-09-09T00:36:21;2.33;;;1.63;;
48835;SDS011;62581;47.342;7.908;2022-09-09T00:38:51;6.63;;;1.73;;
48835;SDS011;62581;47.342;7.908;2022-09-09T00:41:22;8.90;;;1.98;;
48835;SDS011;62581;47.342;7.908;2022-09-09T00:44:00;5.97;;;2.10;;
48835;SDS011;62581;47.342;7.908;2022-09-09T00:46:41;7.75;;;2.10;;
48835;SDS011;62581;47.342;7.908;2022-09-09T00:49:29;6.88;;;1.90;;
48835;SDS011;62581;47.342;7.908;2022-09-09T00:52:08;4.43;;;2.17;;
48835;SDS011;62581;47.342;7.908;2022-09-09T00:54:48;4.47;;;1.75;;
48835;SDS011;62581;47.342;7.908;2022-09-09T00:57:25;3.35;;;1.65;;
48835;SDS011;62581;47.342;7.908;2022-09-09T01:02:48;2.78;;;1.88;;
48835;SDS011;62581;47.342;7.908;2022-09-09T01:05:22;8.15;;;2.88;;
48835;SDS011;62581;47.342;7.908;2022-09-09T01:07:56;5.60;;;2.40;;
48835;SDS011;62581;47.342;7.908;2022-09-09T01:10:30;5.15;;;1.80;;
48835;SDS011;62581;47.342;7.908;2022-09-09T01:13:04;4.88;;;1.80;;
48835;SDS011;62581;47.342;7.908;2022-09-09T01:15:41;4.72;;;1.90;;
48835;SDS011;62581;47.342;7.908;2022-09-09T01:18:12;2.75;;;1.58;;
48835;SDS011;62581;47.342;7.908;2022-09-09T01:20:44;2.35;;;1.60;;
48835;SDS011;62581;47.342;7.908;2022-09-09T01:23:20;5.07;;;2.33;;
48835;SDS011;62581;47.342;7.908;2022-09-09T01:26:14;3.58;;;1.70;;
48835;SDS011;62581;47.342;7.908;2022-09-09T01:28:44;8.73;;;1.90;;
48835;SDS011;62581;47.342;7.908;2022-09-09T01:31:15;6.88;;;1.67;;
48835;SDS011;62581;47.342;7.908;2022-09-09T01:33:45;1.92;;;1.42;;
48835;SDS011;62581;47.342;7.908;2022-09-09T01:36:13;3.83;;;1.45;;
48835;SDS011;62581;47.342;7.908;2022-09-09T01:38:51;4.22;;;1.50;;
48835;SDS011;62581;47.342;7.908;2022-09-09T01:41:20;6.03;;;1.85;;
48835;SDS011;62581;47.342;7.908;2022-09-09T01:43:48;2.28;;;1.55;;
48835;SDS011;62581;47.342;7.908;2022-09-09T01:46:16;2.42;;;1.48;;
48835;SDS011;62581;47.342;7.908;2022-09-09T01:48:44;2.40;;;1.60;;
48835;SDS011;62581;47.342;7.908;2022-09-09T01:51:12;3.72;;;1.70;;
48835;SDS011;62581;47.342;7.908;2022-09-09T01:53:39;3.83;;;1.67;;
48835;SDS011;62581;47.342;7.908;2022-09-09T01:56:12;4.35;;;1.63;;
48835;SDS011;62581;47.342;7.908;2022-09-09T02:01:47;3.97;;;1.50;;
48835;SDS011;62581;47.342;7.908;2022-09-09T02:04:27;1.67;;;1.40;;
48835;SDS011;62581;47.342;7.908;2022-09-09T02:07:02;6.07;;;1.73;;
48835;SDS011;62581;47.342;7.908;2022-09-09T02:09:36;3.92;;;1.40;;
48835;SDS011;62581;47.342;7.908;2022-09-09T02:12:08;3.08;;;1.65;;
48835;SDS011;62581;47.342;7.908;2022-09-09T02:14:40;7.70;;;2.45;;
48835;SDS011;62581;47.342;7.908;2022-09-09T02:17:13;5.90;;;2.08;;
48835;SDS011;62581;47.342;7.908;2022-09-09T02:19:44;2.22;;;1.52;;
48835;SDS011;62581;47.342;7.908;2022-09-09T02:22:15;4.40;;;1.77;;
48835;SDS011;62581;47.342;7.908;2022-09-09T02:24:45;5.22;;;1.45;;
48835;SDS011;62581;47.342;7.908;2022-09-09T02:27:14;3.85;;;1.55;;
48835;SDS011;62581;47.342;7.908;2022-09-09T02:29:42;6.78;;;1.80;;
48835;SDS011;62581;47.342;7.908;2022-09-09T02:32:12;4.80;;;1.70;;
48835;SDS011;62581;47.342;7.908;2022-09-09T02:34:43;2.13;;;1.65;;
48835;SDS011;62581;47.342;7.908;2022-09-09T02:37:13;7.60;;;1.63;;
48835;SDS011;62581;47.342;7.908;2022-09-09T02:39:43;8.52;;;1.90;;
48835;SDS011;62581;47.342;7.908;2022-09-09T02:42:10;4.35;;;1.95;;
48835;SDS011;62581;47.342;7.908;2022-09-09T02:44:41;3.67;;;1.98;;
48835;SDS011;62581;47.342;7.908;2022-09-09T02:47:20;6.03;;;2.70;;
48835;SDS011;62581;47.342;7.908;2022-09-09T02:49:56;3.50;;;2.00;;
48835;SDS011;62581;47.342;7.908;2022-09-09T02:52:38;8.45;;;1.80;;
48835;SDS011;62581;47.342;7.908;2022-09-09T02:55:15;6.35;;;1.60;;
48835;SDS011;62581;47.342;7.908;2022-09-09T02:57:47;3.72;;;2.00;;
48835;SDS011;62581;47.342;7.908;2022-09-09T03:00:23;5.47;;;1.90;;
48835;SDS011;62581;47.342;7.908;2022-09-09T03:02:51;6.53;;;1.90;;
48835;SDS011;62581;47.342;7.908;2022-09-09T03:05:20;3.88;;;2.20;;
48835;SDS011;62581;47.342;7.908;2022-09-09T03:07:47;5.72;;;1.73;;
48835;SDS011;62581;47.342;7.908;2022-09-09T03:10:15;9.60;;;1.88;;
48835;SDS011;62581;47.342;7.908;2022-09-09T03:12:43;2.17;;;1.77;;
48835;SDS011;62581;47.342;7.908;2022-09-09T03:15:10;5.60;;;2.08;;
48835;SDS011;62581;47.342;7.908;2022-09-09T03:17:38;5.07;;;2.17;;
48835;SDS011;62581;47.342;7.908;2022-09-09T03:20:05;5.97;;;1.98;;
48835;SDS011;62581;47.342;7.908;2022-09-09T03:22:33;3.67;;;2.07;;
48835;SDS011;62581;47.342;7.908;2022-09-09T03:25:01;5.28;;;2.00;;
48835;SDS011;62581;47.342;7.908;2022-09-09T03:27:28;5.32;;;2.00;;
48835;SDS011;62581;47.342;7.908;2022-09-09T03:29:56;3.65;;;1.90;;
48835;SDS011;62581;47.342;7.908;2022-09-09T03:32:23;8.07;;;2.28;;
48835;SDS011;62581;47.342;7.908;2022-09-09T03:34:52;4.63;;;2.00;;
48835;SDS011;62581;47.342;7.908;2022-09-09T03:37:19;6.95;;;2.40;;
48835;SDS011;62581;47.342;7.908;2022-09-09T03:39:47;4.70;;;2.28;;
48835;SDS011;62581;47.342;7.908;2022-09-09T03:42:14;9.63;;;2.47;;
48835;SDS011;62581;47.342;7.908;2022-09-09T03:44:44;8.80;;;2.90;;
48835;SDS011;62581;47.342;7.908;2022-09-09T03:47:15;3.75;;;2.20;;
48835;SDS011;62581;47.342;7.908;2022-09-09T03:49:44;5.35;;;2.75;;
48835;SDS011;62581;47.342;7.908;2022-09-09T03:52:12;10.07;;;3.67;;
48835;SDS011;62581;47.342;7.908;2022-09-09T03:54:40;4.55;;;2.33;;
48835;SDS011;62581;47.342;7.908;2022-09-09T03:57:07;6.25;;;3.33;;
48835;SDS011;62581;47.342;7.908;2022-09-09T03:59:35;4.83;;;2.30;;
48835;SDS011;62581;47.342;7.908;2022-09-09T04:02:02;7.68;;;2.70;;
48835;SDS011;62581;47.342;7.908;2022-09-09T04:04:29;3.88;;;2.08;;
48835;SDS011;62581;47.342;7.908;2022-09-09T04:06:56;2.78;;;2.00;;
48835;SDS011;62581;47.342;7.908;2022-09-09T04:09:24;4.88;;;2.53;;
48835;SDS011;62581;47.342;7.908;2022-09-09T04:11:51;4.57;;;2.45;;
48835;SDS011;62581;47.342;7.908;2022-09-09T04:14:20;7.10;;;2.58;;
48835;SDS011;62581;47.342;7.908;2022-09-09T04:16:47;6.30;;;2.15;;
48835;SDS011;62581;47.342;7.908;2022-09-09T04:19:14;7.10;;;2.60;;
48835;SDS011;62581;47.342;7.908;2022-09-09T04:21:41;4.50;;;2.08;;
48835;SDS011;62581;47.342;7.908;2022-09-09T04:24:09;4.97;;;2.65;;
48835;SDS011;62581;47.342;7.908;2022-09-09T04:26:37;4.95;;;2.00;;
48835;SDS011;62581;47.342;7.908;2022-09-09T04:29:04;9.13;;;2.72;;
48835;SDS011;62581;47.342;7.908;2022-09-09T04:31:32;3.65;;;2.25;;
48835;SDS011;62581;47.342;7.908;2022-09-09T04:34:00;6.47;;;2.60;;
48835;SDS011;62581;47.342;7.908;2022-09-09T04:36:30;6.43;;;2.50;;
48835;SDS011;62581;47.342;7.908;2022-09-09T04:38:58;4.07;;;1.90;;
48835;SDS011;62581;47.342;7.908;2022-09-09T04:41:26;2.45;;;1.92;;
48835;SDS011;62581;47.342;7.908;2022-09-09T04:43:54;5.35;;;2.30;;
48835;SDS011;62581;47.342;7.908;2022-09-09T04:46:21;6.55;;;2.53;;
48835;SDS011;62581;47.342;7.908;2022-09-09T04:48:49;8.17;;;2.60;;
48835;SDS011;62581;47.342;7.908;2022-09-09T04:51:18;8.88;;;2.90;;
48835;SDS011;62581;47.342;7.908;2022-09-09T04:53:45;4.32;;;2.47;;
48835;SDS011;62581;47.342;7.908;2022-09-09T04:56:13;4.18;;;2.28;;
48835;SDS011;62581;47.342;7.908;2022-09-09T04:58:41;6.78;;;2.60;;
48835;SDS011;62581;47.342;7.908;2022-09-09T05:01:10;3.40;;;2.40;;
48835;SDS011;62581;47.342;7.908;2022-09-09T05:03:39;6.20;;;2.28;;
48835;SDS011;62581;47.342;7.908;2022-09-09T05:06:06;4.95;;;2.42;;
48835;SDS011;62581;47.342;7.908;2022-09-09T05:08:35;3.22;;;2.45;;
48835;SDS011;62581;47.342;7.908;2022-09-09T05:11:02;8.73;;;2.97;;
48835;SDS011;62581;47.342;7.908;2022-09-09T05:13:30;4.65;;;2.50;;
48835;SDS011;62581;47.342;7.908;2022-09-09T05:15:57;4.30;;;2.60;;
48835;SDS011;62581;47.342;7.908;2022-09-09T05:18:26;4.88;;;2.50;;
48835;SDS011;62581;47.342;7.908;2022-09-09T05:20:59;4.70;;;2.72;;
48835;SDS011;62581;47.342;7.908;2022-09-09T05:23:27;5.95;;;2.70;;
48835;SDS011;62581;47.342;7.908;2022-09-09T05:25:55;6.20;;;2.70;;
48835;SDS011;62581;47.342;7.908;2022-09-09T05:31:00;11.77;;;3.08;;
48835;SDS011;62581;47.342;7.908;2022-09-09T05:33:31;10.77;;;2.63;;
48835;SDS011;62581;47.342;7.908;2022-09-09T05:38:26;8.50;;;3.00;;
48835;SDS011;62581;47.342;7.908;2022-09-09T05:40:54;4.10;;;2.63;;
48835;SDS011;62581;47.342;7.908;2022-09-09T05:43:21;4.97;;;2.30;;
48835;SDS011;62581;47.342;7.908;2022-09-09T05:45:57;4.75;;;2.80;;
48835;SDS011;62581;47.342;7.908;2022-09-09T05:48:27;5.85;;;2.92;;
48835;SDS011;62581;47.342;7.908;2022-09-09T05:50:57;6.57;;;2.63;;
48835;SDS011;62581;47.342;7.908;2022-09-09T05:53:24;4.68;;;2.67;;
48835;SDS011;62581;47.342;7.908;2022-09-09T05:55:58;4.95;;;2.85;;
48835;SDS011;62581;47.342;7.908;2022-09-09T05:58:26;7.22;;;2.97;;
48835;SDS011;62581;47.342;7.908;2022-09-09T06:00:59;10.73;;;3.65;;
48835;SDS011;62581;47.342;7.908;2022-09-09T06:03:27;3.30;;;2.95;;
48835;SDS011;62581;47.342;7.908;2022-09-09T06:05:59;6.95;;;3.35;;
48835;SDS011;62581;47.342;7.908;2022-09-09T06:08:26;5.65;;;3.80;;
48835;SDS011;62581;47.342;7.908;2022-09-09T06:10:53;8.73;;;4.22;;
48835;SDS011;62581;47.342;7.908;2022-09-09T06:13:29;6.57;;;3.35;;
48835;SDS011;62581;47.342;7.908;2022-09-09T06:15:56;8.25;;;3.90;;
48835;SDS011;62581;47.342;7.908;2022-09-09T06:18:24;7.18;;;3.65;;
48835;SDS011;62581;47.342;7.908;2022-09-09T06:20:56;7.95;;;3.28;;
48835;SDS011;62581;47.342;7.908;2022-09-09T06:23:25;5.60;;;3.45;;
48835;SDS011;62581;47.342;7.908;2022-09-09T06:25:59;4.80;;;3.22;;
48835;SDS011;62581;47.342;7.908;2022-09-09T06:28:28;11.98;;;4.13;;
48835;SDS011;62581;47.342;7.908;2022-09-09T06:30:57;8.23;;;3.33;;
48835;SDS011;62581;47.342;7.908;2022-09-09T06:33:25;9.15;;;3.53;;
48835;SDS011;62581;47.342;7.908;2022-09-09T06:35:52;6.80;;;4.30;;
48835;SDS011;62581;47.342;7.908;2022-09-09T06:38:20;7.95;;;4.00;;
48835;SDS011;62581;47.342;7.908;2022-09-09T06:40:52;9.88;;;4.05;;
48835;SDS011;62581;47.342;7.908;2022-09-09T06:43:20;8.07;;;4.00;;
48835;SDS011;62581;47.342;7.908;2022-09-09T06:45:54;7.50;;;4.40;;
48835;SDS011;62581;47.342;7.908;2022-09-09T06:48:22;6.05;;;3.92;;
48835;SDS011;62581;47.342;7.908;2022-09-09T06:53:19;7.38;;;3.75;;
48835;SDS011;62581;47.342;7.908;2022-09-09T06:55:46;8.20;;;4.07;;
48835;SDS011;62581;47.342;7.908;2022-09-09T06:58:14;7.30;;;3.80;;
48835;SDS011;62581;47.342;7.908;2022-09-09T07:00:41;7.88;;;3.60;;
48835;SDS011;62581;47.342;7.908;2022-09-09T07:03:09;10.07;;;3.97;;
48835;SDS011;62581;47.342;7.908;2022-09-09T07:08:03;7.70;;;3.80;;
48835;SDS011;62581;47.342;7.908;2022-09-09T07:10:31;5.20;;;3.05;;
48835;SDS011;62581;47.342;7.908;2022-09-09T07:12:59;5.18;;;3.15;;
48835;SDS011;62581;47.342;7.908;2022-09-09T07:15:28;5.15;;;3.20;;
48835;SDS011;62581;47.342;7.908;2022-09-09T07:17:55;10.30;;;3.83;;
48835;SDS011;62581;47.342;7.908;2022-09-09T07:20:27;6.55;;;3.83;;
48835;SDS011;62581;47.342;7.908;2022-09-09T07:22:54;4.50;;;3.08;;
48835;SDS011;62581;47.342;7.908;2022-09-09T07:25:23;3.42;;;3.13;;
48835;SDS011;62581;47.342;7.908;2022-09-09T07:27:56;6.00;;;3.75;;
48835;SDS011;62581;47.342;7.908;2022-09-09T07:30:23;3.15;;;2.85;;
48835;SDS011;62581;47.342;7.908;2022-09-09T07:32:52;6.35;;;2.83;;
48835;SDS011;62581;47.342;7.908;2022-09-09T07:35:21;5.30;;;2.80;;
48835;SDS011;62581;47.342;7.908;2022-09-09T07:37:48;2.80;;;1.83;;
48835;SDS011;62581;47.342;7.908;2022-09-09T07:40:15;5.00;;;2.50;;
48835;SDS011;62581;47.342;7.908;2022-09-09T07:42:42;4.88;;;2.35;;
48835;SDS011;62581;47.342;7.908;2022-09-09T07:45:09;6.00;;;2.33;;
48835;SDS011;62581;47.342;7.908;2022-09-09T07:47:36;8.65;;;2.58;;
48835;SDS011;62581;47.342;7.908;2022-09-09T07:50:05;4.47;;;2.30;;
48835;SDS011;62581;47.342;7.908;2022-09-09T07:52:34;4.68;;;2.10;;
48835;SDS011;62581;47.342;7.908;2022-09-09T07:55:01;4.07;;;2.17;;
48835;SDS011;62581;47.342;7.908;2022-09-09T07:57:29;4.57;;;2.28;;
48835;SDS011;62581;47.342;7.908;2022-09-09T07:59:56;11.95;;;2.88;;
48835;SDS011;62581;47.342;7.908;2022-09-09T08:02:24;5.75;;;2.17;;
48835;SDS011;62581;47.342;7.908;2022-09-09T08:04:54;2.88;;;1.98;;
48835;SDS011;62581;47.342;7.908;2022-09-09T08:07:22;3.55;;;1.38;;
48835;SDS011;62581;47.342;7.908;2022-09-09T08:09:49;4.35;;;1.77;;
48835;SDS011;62581;47.342;7.908;2022-09-09T08:12:16;3.30;;;1.80;;
48835;SDS011;62581;47.342;7.908;2022-09-09T08:14:43;6.65;;;1.60;;
48835;SDS011;62581;47.342;7.908;2022-09-09T08:17:10;4.15;;;1.30;;
48835;SDS011;62581;47.342;7.908;2022-09-09T08:19:37;4.75;;;1.45;;
48835;SDS011;62581;47.342;7.908;2022-09-09T08:22:05;1.92;;;1.48;;
48835;SDS011;62581;47.342;7.908;2022-09-09T08:24:34;2.83;;;1.60;;
48835;SDS011;62581;47.342;7.908;2022-09-09T08:27:01;2.50;;;1.35;;
48835;SDS011;62581;47.342;7.908;2022-09-09T08:29:28;5.03;;;1.30;;
48835;SDS011;62581;47.342;7.908;2022-09-09T08:31:56;3.88;;;1.50;;
48835;SDS011;62581;47.342;7.908;2022-09-09T08:34:24;4.72;;;1.52;;
48835;SDS011;62581;47.342;7.908;2022-09-09T08:36:53;3.45;;;1.48;;
48835;SDS011;62581;47.342;7.908;2022-09-09T08:39:21;2.60;;;1.50;;
48835;SDS011;62581;47.342;7.908;2022-09-09T08:41:55;4.77;;;1.43;;
48835;SDS011;62581;47.342;7.908;2022-09-09T08:44:38;7.57;;;1.45;;
48835;SDS011;62581;47.342;7.908;2022-09-09T08:47:23;3.78;;;0.63;;
48835;SDS011;62581;47.342;7.908;2022-09-09T08:50:02;3.67;;;1.27;;
48835;SDS011;62581;47.342;7.908;2022-09-09T08:52:41;2.53;;;0.80;;
48835;SDS011;62581;47.342;7.908;2022-09-09T08:55:20;3.15;;;0.90;;
48835;SDS011;62581;47.342;7.908;2022-09-09T08:57:52;4.03;;;0.77;;
48835;SDS011;62581;47.342;7.908;2022-09-09T09:00:22;2.13;;;1.00;;
48835;SDS011;62581;47.342;7.908;2022-09-09T09:02:59;2.30;;;1.05;;
48835;SDS011;62581;47.342;7.908;2022-09-09T09:05:33;2.88;;;0.90;;
48835;SDS011;62581;47.342;7.908;2022-09-09T09:08:08;3.22;;;1.33;;
48835;SDS011;62581;47.342;7.908;2022-09-09T09:10:45;3.72;;;1.25;;
48835;SDS011;62581;47.342;7.908;2022-09-09T09:13:16;5.75;;;1.02;;
48835;SDS011;62581;47.342;7.908;2022-09-09T09:15:46;2.15;;;0.80;;
48835;SDS011;62581;47.342;7.908;2022-09-09T09:18:18;3.30;;;1.30;;
48835;SDS011;62581;47.342;7.908;2022-09-09T09:20:50;5.20;;;1.33;;
48835;SDS011;62581;47.342;7.908;2022-09-09T09:23:24;2.45;;;1.00;;
48835;SDS011;62581;47.342;7.908;2022-09-09T09:25:55;3.17;;;1.40;;
48835;SDS011;62581;47.342;7.908;2022-09-09T09:28:29;4.15;;;1.42;;
48835;SDS011;62581;47.342;7.908;2022-09-09T09:30:59;5.25;;;1.20;;
48835;SDS011;62581;47.342;7.908;2022-09-09T09:33:31;1.98;;;1.00;;
48835;SDS011;62581;47.342;7.908;2022-09-09T09:36:03;4.07;;;1.27;;
48835;SDS011;62581;47.342;7.908;2022-09-09T09:38:31;3.30;;;1.10;;
48835;SDS011;62581;47.342;7.908;2022-09-09T09:40:59;2.83;;;1.00;;
48835;SDS011;62581;47.342;7.908;2022-09-09T09:43:28;3.15;;;1.10;;
48835;SDS011;62581;47.342;7.908;2022-09-09T09:45:56;3.58;;;1.17;;
48835;SDS011;62581;47.342;7.908;2022-09-09T09:48:24;2.10;;;1.07;;
48835;SDS011;62581;47.342;7.908;2022-09-09T09:50:52;3.05;;;1.00;;
48835;SDS011;62581;47.342;7.908;2022-09-09T09:53:23;1.73;;;0.70;;
48835;SDS011;62581;47.342;7.908;2022-09-09T09:55:56;2.80;;;1.17;;
48835;SDS011;62581;47.342;7.908;2022-09-09T09:58:25;3.78;;;1.02;;
48835;SDS011;62581;47.342;7.908;2022-09-09T10:00:57;5.45;;;1.38;;
48835;SDS011;62581;47.342;7.908;2022-09-09T10:03:25;2.88;;;1.13;;
48835;SDS011;62581;47.342;7.908;2022-09-09T10:05:53;2.78;;;1.10;;
48835;SDS011;62581;47.342;7.908;2022-09-09T10:08:21;1.83;;;0.80;;
48835;SDS011;62581;47.342;7.908;2022-09-09T10:13:45;6.47;;;1.25;;
48835;SDS011;62581;47.342;7.908;2022-09-09T10:16:29;3.63;;;0.97;;
48835;SDS011;62581;47.342;7.908;2022-09-09T10:19:09;1.27;;;0.87;;
48835;SDS011;62581;47.342;7.908;2022-09-09T10:21:49;2.17;;;1.02;;
48835;SDS011;62581;47.342;7.908;2022-09-09T10:24:45;2.30;;;0.80;;
48835;SDS011;62581;47.342;7.908;2022-09-09T10:27:32;3.05;;;0.90;;
48835;SDS011;62581;47.342;7.908;2022-09-09T10:30:12;2.03;;;0.70;;
48835;SDS011;62581;47.342;7.908;2022-09-09T10:32:48;2.10;;;0.80;;
48835;SDS011;62581;47.342;7.908;2022-09-09T10:35:27;3.22;;;0.73;;
48835;SDS011;62581;47.342;7.908;2022-09-09T10:38:12;1.48;;;0.65;;
48835;SDS011;62581;47.342;7.908;2022-09-09T10:40:43;4.40;;;0.93;;
48835;SDS011;62581;47.342;7.908;2022-09-09T10:43:29;2.78;;;0.60;;
48835;SDS011;62581;47.342;7.908;2022-09-09T10:46:10;2.30;;;0.70;;
48835;SDS011;62581;47.342;7.908;2022-09-09T10:48:48;1.33;;;0.55;;
48835;SDS011;62581;47.342;7.908;2022-09-09T10:51:27;1.65;;;0.60;;
48835;SDS011;62581;47.342;7.908;2022-09-09T10:54:09;3.08;;;0.70;;
48835;SDS011;62581;47.342;7.908;2022-09-09T10:56:52;2.53;;;0.70;;
48835;SDS011;62581;47.342;7.908;2022-09-09T10:59:24;1.70;;;0.68;;
48835;SDS011;62581;47.342;7.908;2022-09-09T11:01:57;2.15;;;0.73;;
48835;SDS011;62581;47.342;7.908;2022-09-09T11:04:27;0.82;;;0.50;;
48835;SDS011;62581;47.342;7.908;2022-09-09T11:06:59;2.97;;;0.60;;
48835;SDS011;62581;47.342;7.908;2022-09-09T11:09:32;1.70;;;0.52;;
48835;SDS011;62581;47.342;7.908;2022-09-09T11:12:05;1.70;;;0.55;;
48835;SDS011;62581;47.342;7.908;2022-09-09T11:14:40;1.63;;;0.50;;
48835;SDS011;62581;47.342;7.908;2022-09-09T11:17:12;1.15;;;0.60;;
48835;SDS011;62581;47.342;7.908;2022-09-09T11:19:43;2.75;;;0.60;;
48835;SDS011;62581;47.342;7.908;2022-09-09T11:22:15;3.00;;;0.50;;
48835;SDS011;62581;47.342;7.908;2022-09-09T11:24:50;1.20;;;0.60;;
48835;SDS011;62581;47.342;7.908;2022-09-09T11:27:21;1.30;;;0.40;;
48835;SDS011;62581;47.342;7.908;2022-09-09T11:30:03;1.60;;;0.40;;
48835;SDS011;62581;47.342;7.908;2022-09-09T11:35:38;4.05;;;0.65;;
48835;SDS011;62581;47.342;7.908;2022-09-09T11:38:22;2.97;;;0.50;;
48835;SDS011;62581;47.342;7.908;2022-09-09T11:40:55;2.22;;;0.60;;
48835;SDS011;62581;47.342;7.908;2022-09-09T11:43:27;2.20;;;0.40;;
48835;SDS011;62581;47.342;7.908;2022-09-09T11:45:57;3.78;;;0.60;;
48835;SDS011;62581;47.342;7.908;2022-09-09T11:48:35;2.38;;;0.50;;
48835;SDS011;62581;47.342;7.908;2022-09-09T11:51:04;1.95;;;0.50;;
48835;SDS011;62581;47.342;7.908;2022-09-09T11:53:34;1.33;;;0.40;;
48835;SDS011;62581;47.342;7.908;2022-09-09T11:56:09;4.30;;;0.43;;
48835;SDS011;62581;47.342;7.908;2022-09-09T11:58:42;2.88;;;0.60;;
48835;SDS011;62581;47.342;7.908;2022-09-09T12:01:29;1.25;;;0.50;;
48835;SDS011;62581;47.342;7.908;2022-09-09T12:04:14;0.30;;;0.25;;
48835;SDS011;62581;47.342;7.908;2022-09-09T12:06:54;1.98;;;0.80;;
48835;SDS011;62581;47.342;7.908;2022-09-09T12:09:26;1.67;;;0.50;;
48835;SDS011;62581;47.342;7.908;2022-09-09T12:17:50;1.67;;;0.40;;
48835;SDS011;62581;47.342;7.908;2022-09-09T12:20:21;2.53;;;0.70;;
48835;SDS011;62581;47.342;7.908;2022-09-09T12:22:56;2.80;;;0.40;;
48835;SDS011;62581;47.342;7.908;2022-09-09T12:25:36;4.05;;;0.52;;
48835;SDS011;62581;47.342;7.908;2022-09-09T12:28:15;1.88;;;0.60;;
48835;SDS011;62581;47.342;7.908;2022-09-09T12:30:49;1.05;;;0.45;;
48835;SDS011;62581;47.342;7.908;2022-09-09T12:33:24;3.03;;;0.40;;
48835;SDS011;62581;47.342;7.908;2022-09-09T12:36:01;1.23;;;0.68;;
48835;SDS011;62581;47.342;7.908;2022-09-09T12:38:31;2.17;;;0.80;;
48835;SDS011;62581;47.342;7.908;2022-09-09T12:41:00;1.98;;;0.30;;
48835;SDS011;62581;47.342;7.908;2022-09-09T12:43:28;1.50;;;0.50;;
48835;SDS011;62581;47.342;7.908;2022-09-09T12:45:56;2.07;;;0.70;;
48835;SDS011;62581;47.342;7.908;2022-09-09T12:48:27;3.83;;;0.60;;
48835;SDS011;62581;47.342;7.908;2022-09-09T12:51:00;3.03;;;0.40;;
48835;SDS011;62581;47.342;7.908;2022-09-09T12:53:29;1.00;;;0.40;;
48835;SDS011;62581;47.342;7.908;2022-09-09T12:55:59;1.27;;;0.32;;
48835;SDS011;62581;47.342;7.908;2022-09-09T12:58:28;3.17;;;0.40;;
48835;SDS011;62581;47.342;7.908;2022-09-09T13:00:58;1.20;;;0.40;;
48835;SDS011;62581;47.342;7.908;2022-09-09T13:03:26;1.70;;;0.60;;
48835;SDS011;62581;47.342;7.908;2022-09-09T13:05:53;2.20;;;0.35;;
48835;SDS011;62581;47.342;7.908;2022-09-09T13:08:27;4.07;;;0.70;;
48835;SDS011;62581;47.342;7.908;2022-09-09T13:10:55;1.40;;;0.55;;
48835;SDS011;62581;47.342;7.908;2022-09-09T13:13:26;2.22;;;0.43;;
48835;SDS011;62581;47.342;7.908;2022-09-09T13:15:56;0.63;;;0.25;;
48835;SDS011;62581;47.342;7.908;2022-09-09T13:18:25;0.30;;;0.30;;
48835;SDS011;62581;47.342;7.908;2022-09-09T13:20:55;2.70;;;0.35;;
48835;SDS011;62581;47.342;7.908;2022-09-09T13:25:54;1.45;;;0.30;;
48835;SDS011;62581;47.342;7.908;2022-09-09T13:28:22;2.80;;;0.32;;
48835;SDS011;62581;47.342;7.908;2022-09-09T13:30:57;0.88;;;0.38;;
48835;SDS011;62581;47.342;7.908;2022-09-09T13:33:31;2.95;;;0.60;;
48835;SDS011;62581;47.342;7.908;2022-09-09T13:36:02;1.38;;;0.40;;
48835;SDS011;62581;47.342;7.908;2022-09-09T13:38:32;2.15;;;0.32;;
48835;SDS011;62581;47.342;7.908;2022-09-09T13:41:04;1.73;;;0.50;;
48835;SDS011;62581;47.342;7.908;2022-09-09T13:43:34;2.08;;;0.40;;
48835;SDS011;62581;47.342;7.908;2022-09-09T13:46:05;1.60;;;0.60;;
48835;SDS011;62581;47.342;7.908;2022-09-09T13:48:53;1.25;;;0.30;;
48835;SDS011;62581;47.342;7.908;2022-09-09T13:51:26;0.98;;;0.40;;
48835;SDS011;62581;47.342;7.908;2022-09-09T13:53:58;3.05;;;0.93;;
48835;SDS011;62581;47.342;7.908;2022-09-09T13:56:27;3.40;;;0.63;;
48835;SDS011;62581;47.342;7.908;2022-09-09T13:58:54;2.83;;;0.20;;
48835;SDS011;62581;47.342;7.908;2022-09-09T14:01:22;0.73;;;0.30;;
48835;SDS011;62581;47.342;7.908;2022-09-09T14:03:49;0.88;;;0.30;;
48835;SDS011;62581;47.342;7.908;2022-09-09T14:06:18;3.85;;;0.82;;
48835;SDS011;62581;47.342;7.908;2022-09-09T14:08:46;1.92;;;0.57;;
48835;SDS011;62581;47.342;7.908;2022-09-09T14:11:15;1.55;;;0.50;;
48835;SDS011;62581;47.342;7.908;2022-09-09T14:13:43;1.40;;;0.60;;
48835;SDS011;62581;47.342;7.908;2022-09-09T14:16:10;2.22;;;0.75;;
48835;SDS011;62581;47.342;7.908;2022-09-09T14:18:37;1.30;;;0.50;;
48835;SDS011;62581;47.342;7.908;2022-09-09T14:21:05;0.88;;;0.28;;
48835;SDS011;62581;47.342;7.908;2022-09-09T14:23:33;3.35;;;0.68;;
48835;SDS011;62581;47.342;7.908;2022-09-09T14:26:00;5.97;;;0.65;;
48835;SDS011;62581;47.342;7.908;2022-09-09T14:28:27;3.05;;;0.60;;
48835;SDS011;62581;47.342;7.908;2022-09-09T14:30:58;1.35;;;0.40;;
48835;SDS011;62581;47.342;7.908;2022-09-09T14:33:26;1.80;;;0.40;;
48835;SDS011;62581;47.342;7.908;2022-09-09T14:35:55;3.45;;;0.70;;
48835;SDS011;62581;47.342;7.908;2022-09-09T14:38:24;4.50;;;0.52;;
48835;SDS011;62581;47.342;7.908;2022-09-09T14:40:51;0.45;;;0.38;;
48835;SDS011;62581;47.342;7.908;2022-09-09T14:43:18;5.25;;;0.60;;
48835;SDS011;62581;47.342;7.908;2022-09-09T14:45:45;2.83;;;0.55;;
48835;SDS011;62581;47.342;7.908;2022-09-09T14:48:14;1.20;;;0.35;;
48835;SDS011;62581;47.342;7.908;2022-09-09T14:50:41;1.65;;;0.60;;
48835;SDS011;62581;47.342;7.908;2022-09-09T14:53:08;2.90;;;0.63;;
48835;SDS011;62581;47.342;7.908;2022-09-09T14:55:36;1.08;;;0.35;;
48835;SDS011;62581;47.342;7.908;2022-09-09T14:58:03;1.20;;;0.30;;
48835;SDS011;62581;47.342;7.908;2022-09-09T15:00:31;0.90;;;0.23;;
48835;SDS011;62581;47.342;7.908;2022-09-09T15:02:58;2.67;;;0.70;;
48835;SDS011;62581;47.342;7.908;2022-09-09T15:05:26;1.38;;;0.43;;
48835;SDS011;62581;47.342;7.908;2022-09-09T15:07:54;3.17;;;0.43;;
48835;SDS011;62581;47.342;7.908;2022-09-09T15:10:21;2.70;;;0.50;;
48835;SDS011;62581;47.342;7.908;2022-09-09T15:12:48;2.47;;;0.43;;
48835;SDS011;62581;47.342;7.908;2022-09-09T15:15:15;1.45;;;0.35;;
48835;SDS011;62581;47.342;7.908;2022-09-09T15:17:42;2.83;;;0.50;;
48835;SDS011;62581;47.342;7.908;2022-09-09T15:20:09;4.18;;;0.30;;
48835;SDS011;62581;47.342;7.908;2022-09-09T15:22:38;2.13;;;0.50;;
48835;SDS011;62581;47.342;7.908;2022-09-09T15:25:07;2.38;;;0.38;;
48835;SDS011;62581;47.342;7.908;2022-09-09T15:27:34;4.72;;;0.50;;
48835;SDS011;62581;47.342;7.908;2022-09-09T15:30:01;1.70;;;0.37;;
48835;SDS011;62581;47.342;7.908;2022-09-09T15:32:29;1.08;;;0.38;;
48835;SDS011;62581;47.342;7.908;2022-09-09T15:34:57;1.63;;;0.50;;
48835;SDS011;62581;47.342;7.908;2022-09-09T15:37:24;2.15;;;0.47;;
48835;SDS011;62581;47.342;7.908;2022-09-09T15:39:53;0.90;;;0.30;;